sensor_id;sensor_type;location;lat;lon;timestamp;P1;durP1;ratioP1;P2;durP2;ratioP2
78931;SDS011;68331;53.362;55.932;2023-12-20T00:01:39;6.80;;;4.72;;
78931;SDS011;68331;53.362;55.932;2023-12-20T00:04:06;6.97;;;5.43;;
78931;SDS011;68331;53.362;55.932;2023-12-20T00:06:32;5.80;;;5.22;;
78931;SDS011;68331;53.362;55.932;2023-12-20T00:08:58;5.53;;;4.78;;
78931;SDS011;68331;53.362;55.932;2023-12-20T00:11:24;5.53;;;4.70;;
78931;SDS011;68331;53.362;55.932;2023-12-20T00:13:50;5.47;;;4.97;;
78931;SDS011;68331;53.362;55.932;2023-12-20T00:16:16;5.35;;;4.43;;
78931;SDS011;68331;53.362;55.932;2023-12-20T00:18:42;6.45;;;4.85;;
78931;SDS011;68331;53.362;55.932;2023-12-20T00:21:08;4.43;;;4.03;;
78931;SDS011;68331;53.362;55.932;2023-12-20T00:23:34;4.55;;;4.15;;
78931;SDS011;68331;53.362;55.932;2023-12-20T00:25:59;5.55;;;4.57;;
78931;SDS011;68331;53.362;55.932;2023-12-20T00:28:25;6.38;;;5.10;;
78931;SDS011;68331;53.362;55.932;2023-12-20T00:30:51;5.75;;;4.78;;
78931;SDS011;68331;53.362;55.932;2023-12-20T00:33:17;5.35;;;4.28;;
78931;SDS011;68331;53.362;55.932;2023-12-20T00:35:43;7.20;;;5.07;;
78931;SDS011;68331;53.362;55.932;2023-12-20T00:38:09;5.93;;;5.43;;
78931;SDS011;68331;53.362;55.932;2023-12-20T00:40:35;5.57;;;4.55;;
78931;SDS011;68331;53.362;55.932;2023-12-20T00:43:01;6.15;;;4.65;;
78931;SDS011;68331;53.362;55.932;2023-12-20T00:45:27;6.72;;;5.53;;
78931;SDS011;68331;53.362;55.932;2023-12-20T00:47:52;9.40;;;4.90;;
78931;SDS011;68331;53.362;55.932;2023-12-20T00:50:18;5.22;;;4.43;;
78931;SDS011;68331;53.362;55.932;2023-12-20T00:52:44;6.32;;;4.90;;
78931;SDS011;68331;53.362;55.932;2023-12-20T00:55:11;5.13;;;4.63;;
78931;SDS011;68331;53.362;55.932;2023-12-20T00:57:37;5.00;;;4.60;;
78931;SDS011;68331;53.362;55.932;2023-12-20T01:00:03;5.20;;;4.28;;
78931;SDS011;68331;53.362;55.932;2023-12-20T01:02:30;4.57;;;4.18;;
78931;SDS011;68331;53.362;55.932;2023-12-20T01:04:56;4.72;;;4.28;;
78931;SDS011;68331;53.362;55.932;2023-12-20T01:07:22;5.88;;;4.15;;
78931;SDS011;68331;53.362;55.932;2023-12-20T01:09:48;4.18;;;3.70;;
78931;SDS011;68331;53.362;55.932;2023-12-20T01:12:14;6.50;;;4.15;;
78931;SDS011;68331;53.362;55.932;2023-12-20T01:14:40;4.55;;;3.95;;
78931;SDS011;68331;53.362;55.932;2023-12-20T01:17:06;4.80;;;4.40;;
78931;SDS011;68331;53.362;55.932;2023-12-20T01:19:32;5.28;;;4.30;;
78931;SDS011;68331;53.362;55.932;2023-12-20T01:21:57;5.32;;;3.90;;
78931;SDS011;68331;53.362;55.932;2023-12-20T01:24:23;4.38;;;4.00;;
78931;SDS011;68331;53.362;55.932;2023-12-20T01:26:49;3.58;;;3.25;;
78931;SDS011;68331;53.362;55.932;2023-12-20T01:29:15;4.18;;;3.78;;
78931;SDS011;68331;53.362;55.932;2023-12-20T01:31:41;4.70;;;3.75;;
78931;SDS011;68331;53.362;55.932;2023-12-20T01:34:07;3.75;;;3.45;;
78931;SDS011;68331;53.362;55.932;2023-12-20T01:36:33;6.25;;;4.00;;
78931;SDS011;68331;53.362;55.932;2023-12-20T01:38:59;4.05;;;3.08;;
78931;SDS011;68331;53.362;55.932;2023-12-20T01:41:25;5.45;;;4.07;;
78931;SDS011;68331;53.362;55.932;2023-12-20T01:43:51;4.35;;;3.92;;
78931;SDS011;68331;53.362;55.932;2023-12-20T01:46:18;4.28;;;3.88;;
78931;SDS011;68331;53.362;55.932;2023-12-20T01:48:46;4.45;;;4.05;;
78931;SDS011;68331;53.362;55.932;2023-12-20T01:51:13;4.30;;;3.90;;
78931;SDS011;68331;53.362;55.932;2023-12-20T01:53:39;4.80;;;4.35;;
78931;SDS011;68331;53.362;55.932;2023-12-20T01:56:07;3.95;;;3.65;;
78931;SDS011;68331;53.362;55.932;2023-12-20T01:58:34;5.75;;;3.78;;
78931;SDS011;68331;53.362;55.932;2023-12-20T02:01:03;6.82;;;3.88;;
78931;SDS011;68331;53.362;55.932;2023-12-20T02:03:29;5.03;;;4.32;;
78931;SDS011;68331;53.362;55.932;2023-12-20T02:05:55;5.22;;;4.10;;
78931;SDS011;68331;53.362;55.932;2023-12-20T02:08:21;5.03;;;4.20;;
78931;SDS011;68331;53.362;55.932;2023-12-20T02:10:47;5.25;;;4.15;;
78931;SDS011;68331;53.362;55.932;2023-12-20T02:13:13;4.68;;;4.28;;
78931;SDS011;68331;53.362;55.932;2023-12-20T02:15:38;4.85;;;4.05;;
78931;SDS011;68331;53.362;55.932;2023-12-20T02:18:06;4.70;;;3.40;;
78931;SDS011;68331;53.362;55.932;2023-12-20T02:20:33;5.07;;;4.45;;
78931;SDS011;68331;53.362;55.932;2023-12-20T02:22:58;4.70;;;4.03;;
78931;SDS011;68331;53.362;55.932;2023-12-20T02:25:24;6.60;;;5.20;;
78931;SDS011;68331;53.362;55.932;2023-12-20T02:27:50;7.35;;;4.65;;
78931;SDS011;68331;53.362;55.932;2023-12-20T02:30:16;5.90;;;4.13;;
78931;SDS011;68331;53.362;55.932;2023-12-20T02:32:42;6.00;;;4.38;;
78931;SDS011;68331;53.362;55.932;2023-12-20T02:35:08;12.30;;;5.25;;
78931;SDS011;68331;53.362;55.932;2023-12-20T02:37:34;6.15;;;4.32;;
78931;SDS011;68331;53.362;55.932;2023-12-20T02:40:00;7.55;;;4.80;;
78931;SDS011;68331;53.362;55.932;2023-12-20T02:42:26;9.25;;;5.57;;
78931;SDS011;68331;53.362;55.932;2023-12-20T02:44:52;6.30;;;4.88;;
78931;SDS011;68331;53.362;55.932;2023-12-20T02:47:17;8.25;;;4.43;;
78931;SDS011;68331;53.362;55.932;2023-12-20T02:49:43;9.60;;;5.05;;
78931;SDS011;68331;53.362;55.932;2023-12-20T02:52:10;6.70;;;4.78;;
78931;SDS011;68331;53.362;55.932;2023-12-20T02:54:36;6.25;;;5.30;;
78931;SDS011;68331;53.362;55.932;2023-12-20T02:57:02;8.18;;;5.82;;
78931;SDS011;68331;53.362;55.932;2023-12-20T02:59:28;6.32;;;4.65;;
78931;SDS011;68331;53.362;55.932;2023-12-20T03:01:54;6.30;;;4.85;;
78931;SDS011;68331;53.362;55.932;2023-12-20T03:04:20;6.70;;;5.25;;
78931;SDS011;68331;53.362;55.932;2023-12-20T03:06:45;5.93;;;4.60;;
78931;SDS011;68331;53.362;55.932;2023-12-20T03:09:11;6.70;;;5.13;;
78931;SDS011;68331;53.362;55.932;2023-12-20T03:11:37;8.63;;;6.13;;
78931;SDS011;68331;53.362;55.932;2023-12-20T03:14:03;6.70;;;5.45;;
78931;SDS011;68331;53.362;55.932;2023-12-20T03:16:29;6.70;;;4.60;;
78931;SDS011;68331;53.362;55.932;2023-12-20T03:18:56;7.45;;;4.97;;
78931;SDS011;68331;53.362;55.932;2023-12-20T03:21:22;6.53;;;5.30;;
78931;SDS011;68331;53.362;55.932;2023-12-20T03:23:48;6.10;;;4.40;;
78931;SDS011;68331;53.362;55.932;2023-12-20T03:26:14;7.70;;;5.30;;
78931;SDS011;68331;53.362;55.932;2023-12-20T03:28:40;5.32;;;4.57;;
78931;SDS011;68331;53.362;55.932;2023-12-20T03:31:06;4.97;;;4.07;;
78931;SDS011;68331;53.362;55.932;2023-12-20T03:33:32;6.45;;;4.63;;
78931;SDS011;68331;53.362;55.932;2023-12-20T03:35:57;4.72;;;4.15;;
78931;SDS011;68331;53.362;55.932;2023-12-20T03:38:23;4.10;;;3.78;;
78931;SDS011;68331;53.362;55.932;2023-12-20T03:40:50;5.32;;;4.75;;
78931;SDS011;68331;53.362;55.932;2023-12-20T03:43:16;6.20;;;4.85;;
78931;SDS011;68331;53.362;55.932;2023-12-20T03:45:42;5.07;;;3.97;;
78931;SDS011;68331;53.362;55.932;2023-12-20T03:48:08;4.95;;;4.45;;
78931;SDS011;68331;53.362;55.932;2023-12-20T03:50:34;5.53;;;4.50;;
78931;SDS011;68331;53.362;55.932;2023-12-20T03:53:01;5.20;;;3.78;;
78931;SDS011;68331;53.362;55.932;2023-12-20T03:55:27;5.03;;;3.85;;
78931;SDS011;68331;53.362;55.932;2023-12-20T03:57:53;4.85;;;4.45;;
78931;SDS011;68331;53.362;55.932;2023-12-20T04:00:19;3.90;;;3.45;;
78931;SDS011;68331;53.362;55.932;2023-12-20T04:02:45;4.05;;;3.65;;
78931;SDS011;68331;53.362;55.932;2023-12-20T04:05:11;5.40;;;4.38;;
78931;SDS011;68331;53.362;55.932;2023-12-20T04:07:37;4.70;;;3.92;;
78931;SDS011;68331;53.362;55.932;2023-12-20T04:10:04;4.72;;;3.95;;
78931;SDS011;68331;53.362;55.932;2023-12-20T04:12:30;3.85;;;3.47;;
78931;SDS011;68331;53.362;55.932;2023-12-20T04:14:56;4.40;;;3.50;;
78931;SDS011;68331;53.362;55.932;2023-12-20T04:17:22;4.95;;;4.38;;
78931;SDS011;68331;53.362;55.932;2023-12-20T04:19:49;4.95;;;3.97;;
78931;SDS011;68331;53.362;55.932;2023-12-20T04:22:15;4.22;;;3.83;;
78931;SDS011;68331;53.362;55.932;2023-12-20T04:24:42;5.63;;;4.32;;
78931;SDS011;68331;53.362;55.932;2023-12-20T04:27:08;4.78;;;4.10;;
78931;SDS011;68331;53.362;55.932;2023-12-20T04:29:34;4.78;;;3.38;;
78931;SDS011;68331;53.362;55.932;2023-12-20T04:32:00;4.18;;;3.78;;
78931;SDS011;68331;53.362;55.932;2023-12-20T04:34:26;4.63;;;3.63;;
78931;SDS011;68331;53.362;55.932;2023-12-20T04:36:52;4.00;;;3.60;;
78931;SDS011;68331;53.362;55.932;2023-12-20T04:39:18;4.13;;;3.72;;
78931;SDS011;68331;53.362;55.932;2023-12-20T04:41:44;4.65;;;4.25;;
78931;SDS011;68331;53.362;55.932;2023-12-20T04:44:11;4.28;;;3.50;;
78931;SDS011;68331;53.362;55.932;2023-12-20T04:46:37;5.25;;;3.35;;
78931;SDS011;68331;53.362;55.932;2023-12-20T04:49:02;4.07;;;3.67;;
78931;SDS011;68331;53.362;55.932;2023-12-20T04:51:28;4.47;;;4.07;;
78931;SDS011;68331;53.362;55.932;2023-12-20T04:53:54;6.13;;;3.92;;
78931;SDS011;68331;53.362;55.932;2023-12-20T04:56:20;7.45;;;4.35;;
78931;SDS011;68331;53.362;55.932;2023-12-20T04:58:46;5.70;;;4.03;;
78931;SDS011;68331;53.362;55.932;2023-12-20T06:31:06;2.58;;;2.38;;
78931;SDS011;68331;53.362;55.932;2023-12-20T06:33:32;3.08;;;2.83;;
78931;SDS011;68331;53.362;55.932;2023-12-20T06:35:58;2.35;;;2.15;;
78931;SDS011;68331;53.362;55.932;2023-12-20T06:38:24;3.70;;;3.40;;
78931;SDS011;68331;53.362;55.932;2023-12-20T06:40:50;3.17;;;2.88;;
78931;SDS011;68331;53.362;55.932;2023-12-20T06:43:16;3.10;;;2.80;;
78931;SDS011;68331;53.362;55.932;2023-12-20T06:45:42;2.92;;;2.63;;
78931;SDS011;68331;53.362;55.932;2023-12-20T06:48:08;3.95;;;2.72;;
78931;SDS011;68331;53.362;55.932;2023-12-20T06:50:36;3.05;;;2.83;;
78931;SDS011;68331;53.362;55.932;2023-12-20T06:53:05;3.22;;;2.92;;
78931;SDS011;68331;53.362;55.932;2023-12-20T06:55:35;3.10;;;2.85;;
78931;SDS011;68331;53.362;55.932;2023-12-20T06:58:02;2.65;;;2.45;;
78931;SDS011;68331;53.362;55.932;2023-12-20T07:00:27;2.60;;;2.20;;
78931;SDS011;68331;53.362;55.932;2023-12-20T07:02:54;3.45;;;2.75;;
78931;SDS011;68331;53.362;55.932;2023-12-20T07:05:20;2.58;;;2.38;;
78931;SDS011;68331;53.362;55.932;2023-12-20T07:07:46;3.10;;;2.80;;
78931;SDS011;68331;53.362;55.932;2023-12-20T07:10:16;2.75;;;2.55;;
78931;SDS011;68331;53.362;55.932;2023-12-20T07:12:43;2.70;;;2.50;;
78931;SDS011;68331;53.362;55.932;2023-12-20T07:15:09;2.75;;;2.53;;
78931;SDS011;68331;53.362;55.932;2023-12-20T07:17:35;2.50;;;2.25;;
78931;SDS011;68331;53.362;55.932;2023-12-20T07:20:01;3.05;;;2.80;;
78931;SDS011;68331;53.362;55.932;2023-12-20T07:22:29;2.72;;;2.53;;
78931;SDS011;68331;53.362;55.932;2023-12-20T07:24:59;2.17;;;1.98;;
78931;SDS011;68331;53.362;55.932;2023-12-20T07:27:26;3.85;;;2.97;;
78931;SDS011;68331;53.362;55.932;2023-12-20T07:29:52;2.40;;;2.25;;
78931;SDS011;68331;53.362;55.932;2023-12-20T07:32:18;2.83;;;2.33;;
78931;SDS011;68331;53.362;55.932;2023-12-20T07:34:44;2.78;;;2.53;;
78931;SDS011;68331;53.362;55.932;2023-12-20T07:37:10;2.60;;;2.40;;
78931;SDS011;68331;53.362;55.932;2023-12-20T07:39:40;2.20;;;1.90;;
78931;SDS011;68331;53.362;55.932;2023-12-20T07:42:07;3.63;;;3.38;;
78931;SDS011;68331;53.362;55.932;2023-12-20T07:44:33;2.45;;;2.30;;
78931;SDS011;68331;53.362;55.932;2023-12-20T07:46:59;2.00;;;1.90;;
78931;SDS011;68331;53.362;55.932;2023-12-20T07:49:26;2.20;;;2.05;;
78931;SDS011;68331;53.362;55.932;2023-12-20T07:51:52;2.13;;;1.83;;
78931;SDS011;68331;53.362;55.932;2023-12-20T07:54:18;3.10;;;2.42;;
78931;SDS011;68331;53.362;55.932;2023-12-20T07:56:44;2.13;;;2.03;;
78931;SDS011;68331;53.362;55.932;2023-12-20T07:59:10;2.13;;;1.90;;
78931;SDS011;68331;53.362;55.932;2023-12-20T08:01:36;2.28;;;2.17;;
78931;SDS011;68331;53.362;55.932;2023-12-20T08:04:02;3.15;;;2.05;;
78931;SDS011;68331;53.362;55.932;2023-12-20T08:06:28;1.83;;;1.73;;
78931;SDS011;68331;53.362;55.932;2023-12-20T08:08:54;2.20;;;2.05;;
78931;SDS011;68331;53.362;55.932;2023-12-20T08:11:20;2.35;;;2.00;;
78931;SDS011;68331;53.362;55.932;2023-12-20T08:13:46;2.50;;;2.30;;
78931;SDS011;68331;53.362;55.932;2023-12-20T08:16:11;2.63;;;2.22;;
78931;SDS011;68331;53.362;55.932;2023-12-20T08:18:40;4.65;;;1.63;;
78931;SDS011;68331;53.362;55.932;2023-12-20T08:21:07;2.35;;;2.25;;
78931;SDS011;68331;53.362;55.932;2023-12-20T08:23:33;2.40;;;2.20;;
78931;SDS011;68331;53.362;55.932;2023-12-20T08:26:06;2.00;;;1.90;;
78931;SDS011;68331;53.362;55.932;2023-12-20T08:28:36;1.75;;;1.65;;
78931;SDS011;68331;53.362;55.932;2023-12-20T08:31:02;2.13;;;2.03;;
78931;SDS011;68331;53.362;55.932;2023-12-20T08:33:28;2.17;;;1.98;;
78931;SDS011;68331;53.362;55.932;2023-12-20T08:35:54;2.35;;;2.10;;
78931;SDS011;68331;53.362;55.932;2023-12-20T08:38:20;2.17;;;2.08;;
78931;SDS011;68331;53.362;55.932;2023-12-20T08:40:46;1.80;;;1.70;;
78931;SDS011;68331;53.362;55.932;2023-12-20T08:43:11;2.22;;;2.13;;
78931;SDS011;68331;53.362;55.932;2023-12-20T08:45:37;1.83;;;1.73;;
78931;SDS011;68331;53.362;55.932;2023-12-20T08:48:04;2.10;;;1.83;;
78931;SDS011;68331;53.362;55.932;2023-12-20T08:50:30;6.13;;;2.03;;
78931;SDS011;68331;53.362;55.932;2023-12-20T08:52:56;2.00;;;1.75;;
78931;SDS011;68331;53.362;55.932;2023-12-20T08:55:22;2.03;;;1.80;;
78931;SDS011;68331;53.362;55.932;2023-12-20T08:57:48;2.25;;;2.10;;
78931;SDS011;68331;53.362;55.932;2023-12-20T09:00:15;3.00;;;2.33;;
78931;SDS011;68331;53.362;55.932;2023-12-20T09:02:41;2.95;;;1.98;;
78931;SDS011;68331;53.362;55.932;2023-12-20T09:05:07;2.42;;;1.92;;
78931;SDS011;68331;53.362;55.932;2023-12-20T09:07:33;1.95;;;1.75;;
78931;SDS011;68331;53.362;55.932;2023-12-20T09:09:59;2.35;;;1.73;;
78931;SDS011;68331;53.362;55.932;2023-12-20T09:12:25;1.98;;;1.88;;
78931;SDS011;68331;53.362;55.932;2023-12-20T09:14:51;1.67;;;1.58;;
78931;SDS011;68331;53.362;55.932;2023-12-20T09:17:17;2.40;;;2.30;;
78931;SDS011;68331;53.362;55.932;2023-12-20T09:19:44;2.22;;;2.03;;
78931;SDS011;68331;53.362;55.932;2023-12-20T09:22:11;2.13;;;2.03;;
78931;SDS011;68331;53.362;55.932;2023-12-20T09:24:37;2.13;;;1.65;;
78931;SDS011;68331;53.362;55.932;2023-12-20T09:27:06;2.25;;;2.13;;
78931;SDS011;68331;53.362;55.932;2023-12-20T09:29:32;2.05;;;1.95;;
78931;SDS011;68331;53.362;55.932;2023-12-20T09:31:58;2.08;;;1.98;;
78931;SDS011;68331;53.362;55.932;2023-12-20T09:34:24;1.88;;;1.85;;
78931;SDS011;68331;53.362;55.932;2023-12-20T09:36:51;2.17;;;2.08;;
78931;SDS011;68331;53.362;55.932;2023-12-20T09:39:17;1.60;;;1.52;;
78931;SDS011;68331;53.362;55.932;2023-12-20T09:41:45;1.70;;;1.60;;
78931;SDS011;68331;53.362;55.932;2023-12-20T09:44:15;2.00;;;1.90;;
78931;SDS011;68331;53.362;55.932;2023-12-20T09:46:43;1.88;;;1.77;;
78931;SDS011;68331;53.362;55.932;2023-12-20T09:49:11;1.85;;;1.75;;
78931;SDS011;68331;53.362;55.932;2023-12-20T09:51:38;2.30;;;2.20;;
78931;SDS011;68331;53.362;55.932;2023-12-20T09:54:06;5.13;;;1.83;;
78931;SDS011;68331;53.362;55.932;2023-12-20T09:56:33;1.90;;;1.80;;
78931;SDS011;68331;53.362;55.932;2023-12-20T09:58:59;1.98;;;1.88;;
78931;SDS011;68331;53.362;55.932;2023-12-20T10:01:25;2.28;;;2.17;;
78931;SDS011;68331;53.362;55.932;2023-12-20T10:03:52;1.90;;;1.80;;
78931;SDS011;68331;53.362;55.932;2023-12-20T10:06:20;1.92;;;1.83;;
78931;SDS011;68331;53.362;55.932;2023-12-20T10:08:47;1.95;;;1.85;;
78931;SDS011;68331;53.362;55.932;2023-12-20T10:11:13;2.28;;;2.17;;
78931;SDS011;68331;53.362;55.932;2023-12-20T10:13:40;2.15;;;2.05;;
78931;SDS011;68331;53.362;55.932;2023-12-20T10:16:06;1.92;;;1.58;;
78931;SDS011;68331;53.362;55.932;2023-12-20T10:18:33;1.73;;;1.63;;
78931;SDS011;68331;53.362;55.932;2023-12-20T10:21:00;1.92;;;1.83;;
78931;SDS011;68331;53.362;55.932;2023-12-20T10:23:26;1.65;;;1.55;;
78931;SDS011;68331;53.362;55.932;2023-12-20T10:25:58;2.08;;;1.92;;
78931;SDS011;68331;53.362;55.932;2023-12-20T10:28:25;2.13;;;2.03;;
78931;SDS011;68331;53.362;55.932;2023-12-20T10:30:54;1.92;;;1.83;;
78931;SDS011;68331;53.362;55.932;2023-12-20T10:33:24;2.08;;;1.67;;
78931;SDS011;68331;53.362;55.932;2023-12-20T10:35:57;3.03;;;2.20;;
78931;SDS011;68331;53.362;55.932;2023-12-20T10:38:23;1.77;;;1.73;;
78931;SDS011;68331;53.362;55.932;2023-12-20T10:40:49;1.70;;;1.60;;
78931;SDS011;68331;53.362;55.932;2023-12-20T10:43:24;1.98;;;1.75;;
78931;SDS011;68331;53.362;55.932;2023-12-20T10:48:18;1.85;;;1.75;;
78931;SDS011;68331;53.362;55.932;2023-12-20T10:50:44;1.83;;;1.73;;
78931;SDS011;68331;53.362;55.932;2023-12-20T10:53:10;1.52;;;1.42;;
78931;SDS011;68331;53.362;55.932;2023-12-20T10:55:38;1.60;;;1.60;;
78931;SDS011;68331;53.362;55.932;2023-12-20T10:58:06;1.73;;;1.63;;
78931;SDS011;68331;53.362;55.932;2023-12-20T11:00:43;1.65;;;1.55;;
78931;SDS011;68331;53.362;55.932;2023-12-20T11:03:11;2.78;;;1.95;;
78931;SDS011;68331;53.362;55.932;2023-12-20T11:11:51;1.70;;;1.70;;
78931;SDS011;68331;53.362;55.932;2023-12-20T11:14:20;1.75;;;1.65;;
78931;SDS011;68331;53.362;55.932;2023-12-20T11:16:55;1.42;;;1.42;;
78931;SDS011;68331;53.362;55.932;2023-12-20T11:19:31;2.08;;;1.88;;
78931;SDS011;68331;53.362;55.932;2023-12-20T11:21:57;1.55;;;1.50;;
78931;SDS011;68331;53.362;55.932;2023-12-20T11:24:23;1.48;;;1.38;;
78931;SDS011;68331;53.362;55.932;2023-12-20T11:26:50;1.63;;;1.52;;
78931;SDS011;68331;53.362;55.932;2023-12-20T11:29:37;2.05;;;1.95;;
78931;SDS011;68331;53.362;55.932;2023-12-20T11:32:03;1.48;;;1.38;;
78931;SDS011;68331;53.362;55.932;2023-12-20T11:34:50;2.45;;;1.50;;
78931;SDS011;68331;53.362;55.932;2023-12-20T11:37:16;1.15;;;1.15;;
78931;SDS011;68331;53.362;55.932;2023-12-20T11:39:45;1.40;;;1.40;;
78931;SDS011;68331;53.362;55.932;2023-12-20T11:42:19;1.30;;;1.20;;
78931;SDS011;68331;53.362;55.932;2023-12-20T11:44:46;1.45;;;1.35;;
78931;SDS011;68331;53.362;55.932;2023-12-20T11:47:12;1.30;;;1.30;;
78931;SDS011;68331;53.362;55.932;2023-12-20T11:49:39;2.13;;;2.03;;
78931;SDS011;68331;53.362;55.932;2023-12-20T11:52:05;1.30;;;1.30;;
78931;SDS011;68331;53.362;55.932;2023-12-20T11:54:31;1.90;;;1.80;;
78931;SDS011;68331;53.362;55.932;2023-12-20T11:56:58;1.60;;;1.60;;
78931;SDS011;68331;53.362;55.932;2023-12-20T11:59:24;1.60;;;1.50;;
78931;SDS011;68331;53.362;55.932;2023-12-20T12:01:53;2.33;;;2.22;;
78931;SDS011;68331;53.362;55.932;2023-12-20T12:04:21;1.63;;;1.52;;
78931;SDS011;68331;53.362;55.932;2023-12-20T12:06:47;1.52;;;1.42;;
78931;SDS011;68331;53.362;55.932;2023-12-20T12:09:13;2.00;;;1.90;;
78931;SDS011;68331;53.362;55.932;2023-12-20T12:11:39;2.25;;;1.80;;
78931;SDS011;68331;53.362;55.932;2023-12-20T12:14:06;2.00;;;1.80;;
78931;SDS011;68331;53.362;55.932;2023-12-20T12:16:33;2.33;;;2.13;;
78931;SDS011;68331;53.362;55.932;2023-12-20T12:18:59;1.73;;;1.63;;
78931;SDS011;68331;53.362;55.932;2023-12-20T12:21:26;1.52;;;1.42;;
78931;SDS011;68331;53.362;55.932;2023-12-20T12:23:52;1.63;;;1.60;;
78931;SDS011;68331;53.362;55.932;2023-12-20T12:26:18;1.50;;;1.50;;
78931;SDS011;68331;53.362;55.932;2023-12-20T12:28:44;1.77;;;1.67;;
78931;SDS011;68331;53.362;55.932;2023-12-20T12:31:13;2.10;;;2.00;;
78931;SDS011;68331;53.362;55.932;2023-12-20T12:33:41;1.30;;;1.20;;
78931;SDS011;68331;53.362;55.932;2023-12-20T12:36:07;1.85;;;1.75;;
78931;SDS011;68331;53.362;55.932;2023-12-20T12:38:33;1.83;;;1.73;;
78931;SDS011;68331;53.362;55.932;2023-12-20T12:41:00;1.95;;;1.85;;
78931;SDS011;68331;53.362;55.932;2023-12-20T12:43:26;3.00;;;2.80;;
78931;SDS011;68331;53.362;55.932;2023-12-20T12:45:52;1.60;;;1.50;;
78931;SDS011;68331;53.362;55.932;2023-12-20T12:48:19;2.05;;;1.95;;
78931;SDS011;68331;53.362;55.932;2023-12-20T12:50:47;1.80;;;1.70;;
78931;SDS011;68331;53.362;55.932;2023-12-20T12:53:13;1.70;;;1.60;;
78931;SDS011;68331;53.362;55.932;2023-12-20T12:55:39;1.48;;;1.40;;
78931;SDS011;68331;53.362;55.932;2023-12-20T12:58:05;1.63;;;1.48;;
78931;SDS011;68331;53.362;55.932;2023-12-20T13:00:31;1.73;;;1.63;;
78931;SDS011;68331;53.362;55.932;2023-12-20T13:02:57;1.75;;;1.65;;
78931;SDS011;68331;53.362;55.932;2023-12-20T13:05:23;1.63;;;1.60;;
78931;SDS011;68331;53.362;55.932;2023-12-20T13:07:49;1.98;;;1.88;;
78931;SDS011;68331;53.362;55.932;2023-12-20T13:10:15;1.73;;;1.63;;
78931;SDS011;68331;53.362;55.932;2023-12-20T13:12:42;1.73;;;1.63;;
78931;SDS011;68331;53.362;55.932;2023-12-20T13:15:08;1.92;;;1.83;;
78931;SDS011;68331;53.362;55.932;2023-12-20T13:17:34;2.22;;;2.13;;
78931;SDS011;68331;53.362;55.932;2023-12-20T13:20:00;1.73;;;1.63;;
78931;SDS011;68331;53.362;55.932;2023-12-20T13:22:28;1.73;;;1.63;;
78931;SDS011;68331;53.362;55.932;2023-12-20T13:24:54;1.65;;;1.58;;
78931;SDS011;68331;53.362;55.932;2023-12-20T13:27:19;1.67;;;1.58;;
78931;SDS011;68331;53.362;55.932;2023-12-20T13:29:45;1.98;;;1.38;;
78931;SDS011;68331;53.362;55.932;2023-12-20T13:32:11;2.03;;;1.80;;
78931;SDS011;68331;53.362;55.932;2023-12-20T13:34:38;1.73;;;1.63;;
78931;SDS011;68331;53.362;55.932;2023-12-20T13:37:04;1.40;;;1.30;;
78931;SDS011;68331;53.362;55.932;2023-12-20T13:39:30;1.92;;;1.60;;
78931;SDS011;68331;53.362;55.932;2023-12-20T13:41:56;1.88;;;1.77;;
78931;SDS011;68331;53.362;55.932;2023-12-20T13:44:23;2.05;;;1.85;;
78931;SDS011;68331;53.362;55.932;2023-12-20T13:46:49;1.92;;;1.83;;
78931;SDS011;68331;53.362;55.932;2023-12-20T13:49:15;1.98;;;1.88;;
78931;SDS011;68331;53.362;55.932;2023-12-20T13:51:41;1.90;;;1.80;;
78931;SDS011;68331;53.362;55.932;2023-12-20T13:54:07;2.25;;;2.00;;
78931;SDS011;68331;53.362;55.932;2023-12-20T13:56:34;2.10;;;1.83;;
78931;SDS011;68331;53.362;55.932;2023-12-20T13:59:00;1.77;;;1.67;;
78931;SDS011;68331;53.362;55.932;2023-12-20T14:01:25;1.77;;;1.67;;
78931;SDS011;68331;53.362;55.932;2023-12-20T14:03:52;1.90;;;1.80;;
78931;SDS011;68331;53.362;55.932;2023-12-20T14:06:17;1.85;;;1.73;;
78931;SDS011;68331;53.362;55.932;2023-12-20T14:08:43;1.85;;;1.52;;
78931;SDS011;68331;53.362;55.932;2023-12-20T14:11:09;4.47;;;3.08;;
78931;SDS011;68331;53.362;55.932;2023-12-20T14:13:36;1.95;;;1.70;;
78931;SDS011;68331;53.362;55.932;2023-12-20T14:16:02;1.80;;;1.70;;
78931;SDS011;68331;53.362;55.932;2023-12-20T14:18:29;2.53;;;2.33;;
78931;SDS011;68331;53.362;55.932;2023-12-20T14:20:55;2.28;;;1.92;;
78931;SDS011;68331;53.362;55.932;2023-12-20T14:23:21;2.47;;;2.28;;
78931;SDS011;68331;53.362;55.932;2023-12-20T14:25:48;2.03;;;1.88;;
78931;SDS011;68331;53.362;55.932;2023-12-20T14:28:14;2.00;;;1.63;;
78931;SDS011;68331;53.362;55.932;2023-12-20T14:30:41;2.13;;;1.77;;
78931;SDS011;68331;53.362;55.932;2023-12-20T14:33:07;1.98;;;1.85;;
78931;SDS011;68331;53.362;55.932;2023-12-20T14:35:33;2.45;;;1.83;;
78931;SDS011;68331;53.362;55.932;2023-12-20T14:37:59;1.80;;;1.70;;
78931;SDS011;68331;53.362;55.932;2023-12-20T14:40:25;1.98;;;1.88;;
78931;SDS011;68331;53.362;55.932;2023-12-20T14:42:51;1.73;;;1.63;;
78931;SDS011;68331;53.362;55.932;2023-12-20T14:45:16;1.90;;;1.80;;
78931;SDS011;68331;53.362;55.932;2023-12-20T14:47:43;2.13;;;1.90;;
78931;SDS011;68331;53.362;55.932;2023-12-20T14:50:10;2.17;;;1.83;;
78931;SDS011;68331;53.362;55.932;2023-12-20T14:52:42;2.17;;;2.08;;
78931;SDS011;68331;53.362;55.932;2023-12-20T14:55:08;2.03;;;1.92;;
78931;SDS011;68331;53.362;55.932;2023-12-20T14:57:34;2.08;;;1.98;;
78931;SDS011;68331;53.362;55.932;2023-12-20T15:00:00;2.53;;;2.03;;
78931;SDS011;68331;53.362;55.932;2023-12-20T15:02:26;2.15;;;2.05;;
78931;SDS011;68331;53.362;55.932;2023-12-20T15:04:52;2.10;;;1.85;;
78931;SDS011;68331;53.362;55.932;2023-12-20T15:07:19;2.38;;;2.22;;
78931;SDS011;68331;53.362;55.932;2023-12-20T15:09:45;1.58;;;1.48;;
78931;SDS011;68331;53.362;55.932;2023-12-20T15:12:13;1.80;;;1.70;;
78931;SDS011;68331;53.362;55.932;2023-12-20T15:14:39;1.88;;;1.77;;
78931;SDS011;68331;53.362;55.932;2023-12-20T15:17:05;2.10;;;2.00;;
78931;SDS011;68331;53.362;55.932;2023-12-20T15:19:31;1.85;;;1.75;;
78931;SDS011;68331;53.362;55.932;2023-12-20T15:21:58;1.77;;;1.67;;
78931;SDS011;68331;53.362;55.932;2023-12-20T15:24:27;1.85;;;1.75;;
78931;SDS011;68331;53.362;55.932;2023-12-20T15:27:06;1.77;;;1.67;;
78931;SDS011;68331;53.362;55.932;2023-12-20T15:29:32;1.70;;;1.50;;
78931;SDS011;68331;53.362;55.932;2023-12-20T15:32:00;2.13;;;2.03;;
78931;SDS011;68331;53.362;55.932;2023-12-20T15:34:26;2.10;;;2.00;;
78931;SDS011;68331;53.362;55.932;2023-12-20T15:36:52;2.00;;;1.90;;
78931;SDS011;68331;53.362;55.932;2023-12-20T15:39:18;2.38;;;2.17;;
78931;SDS011;68331;53.362;55.932;2023-12-20T15:41:45;2.50;;;2.40;;
78931;SDS011;68331;53.362;55.932;2023-12-20T15:44:12;2.00;;;1.90;;
78931;SDS011;68331;53.362;55.932;2023-12-20T15:46:38;1.92;;;1.83;;
78931;SDS011;68331;53.362;55.932;2023-12-20T15:49:04;4.35;;;2.08;;
78931;SDS011;68331;53.362;55.932;2023-12-20T15:51:30;1.75;;;1.65;;
78931;SDS011;68331;53.362;55.932;2023-12-20T15:53:56;1.60;;;1.50;;
78931;SDS011;68331;53.362;55.932;2023-12-20T15:56:22;1.50;;;1.40;;
78931;SDS011;68331;53.362;55.932;2023-12-20T15:58:48;1.73;;;1.63;;
78931;SDS011;68331;53.362;55.932;2023-12-20T16:01:17;1.52;;;1.52;;
78931;SDS011;68331;53.362;55.932;2023-12-20T16:03:43;1.77;;;1.67;;
78931;SDS011;68331;53.362;55.932;2023-12-20T16:06:09;1.80;;;1.70;;
78931;SDS011;68331;53.362;55.932;2023-12-20T16:08:36;1.77;;;1.67;;